sensor_id;sensor_type;location;lat;lon;timestamp;pressure;altitude;pressure_sealevel;temperature;humidity
50977;BME280;36992;48.200;12.418;2023-07-16T00:01:22;96184.66;;;30.54;34.03
50977;BME280;36992;48.200;12.418;2023-07-16T00:03:48;96195.53;;;30.48;34.41
50977;BME280;36992;48.200;12.418;2023-07-16T00:06:16;96209.97;;;30.43;34.38
50977;BME280;36992;48.200;12.418;2023-07-16T00:08:43;96221.69;;;30.34;34.86
50977;BME280;36992;48.200;12.418;2023-07-16T00:11:09;96248.53;;;30.24;34.76
50977;BME280;36992;48.200;12.418;2023-07-16T00:13:36;96280.13;;;30.14;34.91
50977;BME280;36992;48.200;12.418;2023-07-16T00:16:03;96325.47;;;30.07;35.11
50977;BME280;36992;48.200;12.418;2023-07-16T00:18:29;96342.31;;;30.00;35.32
50977;BME280;36992;48.200;12.418;2023-07-16T00:20:56;96331.78;;;29.91;36.24
50977;BME280;36992;48.200;12.418;2023-07-16T00:23:24;96342.09;;;29.91;36.03
50977;BME280;36992;48.200;12.418;2023-07-16T00:25:51;96318.22;;;29.77;36.33
50977;BME280;36992;48.200;12.418;2023-07-16T00:28:17;96318.78;;;29.68;36.51
50977;BME280;36992;48.200;12.418;2023-07-16T00:30:44;96331.69;;;29.58;37.03
50977;BME280;36992;48.200;12.418;2023-07-16T00:33:10;96331.88;;;29.47;37.14
50977;BME280;36992;48.200;12.418;2023-07-16T00:35:37;96308.78;;;29.33;37.36
50977;BME280;36992;48.200;12.418;2023-07-16T00:38:04;96336.00;;;29.18;38.11
50977;BME280;36992;48.200;12.418;2023-07-16T00:40:32;96324.28;;;29.11;37.53
50977;BME280;36992;48.200;12.418;2023-07-16T00:42:58;96315.34;;;29.03;38.34
50977;BME280;36992;48.200;12.418;2023-07-16T00:45:25;96348.28;;;28.97;38.29
50977;BME280;36992;48.200;12.418;2023-07-16T00:47:51;96336.13;;;28.91;38.70
50977;BME280;36992;48.200;12.418;2023-07-16T00:50:18;96329.81;;;28.90;38.48
50977;BME280;36992;48.200;12.418;2023-07-16T00:52:45;96345.72;;;28.86;38.69
50977;BME280;36992;48.200;12.418;2023-07-16T00:55:12;96339.78;;;28.84;38.20
50977;BME280;36992;48.200;12.418;2023-07-16T00:57:40;96333.88;;;28.82;38.39
50977;BME280;36992;48.200;12.418;2023-07-16T01:00:07;96326.84;;;28.77;38.68
50977;BME280;36992;48.200;12.418;2023-07-16T01:02:35;96321.34;;;28.74;38.40
50977;BME280;36992;48.200;12.418;2023-07-16T01:05:01;96341.97;;;28.73;38.57
50977;BME280;36992;48.200;12.418;2023-07-16T01:07:30;96339.19;;;28.73;37.68
50977;BME280;36992;48.200;12.418;2023-07-16T01:09:57;96344.88;;;28.65;38.54
50977;BME280;36992;48.200;12.418;2023-07-16T01:12:26;96358.72;;;28.65;37.99
50977;BME280;36992;48.200;12.418;2023-07-16T01:14:56;96376.16;;;28.62;38.62
50977;BME280;36992;48.200;12.418;2023-07-16T01:17:23;96380.25;;;28.54;38.44
50977;BME280;36992;48.200;12.418;2023-07-16T01:19:49;96387.78;;;28.53;38.65
50977;BME280;36992;48.200;12.418;2023-07-16T01:22:27;96398.03;;;28.57;38.21
50977;BME280;36992;48.200;12.418;2023-07-16T01:25:09;96416.63;;;28.56;38.66
50977;BME280;36992;48.200;12.418;2023-07-16T01:28:05;96433.25;;;28.56;38.15
50977;BME280;36992;48.200;12.418;2023-07-16T01:30:35;96465.75;;;28.52;39.05
50977;BME280;36992;48.200;12.418;2023-07-16T01:33:03;96490.38;;;28.46;39.12
50977;BME280;36992;48.200;12.418;2023-07-16T01:35:30;96509.81;;;28.43;39.64
50977;BME280;36992;48.200;12.418;2023-07-16T01:37:57;96544.25;;;28.41;39.55
50977;BME280;36992;48.200;12.418;2023-07-16T01:40:23;96578.31;;;28.38;39.93
50977;BME280;36992;48.200;12.418;2023-07-16T01:42:50;96597.34;;;28.36;40.39
50977;BME280;36992;48.200;12.418;2023-07-16T01:45:16;96593.06;;;28.32;39.76
50977;BME280;36992;48.200;12.418;2023-07-16T01:47:50;96595.78;;;28.35;39.55
50977;BME280;36992;48.200;12.418;2023-07-16T01:50:21;96598.25;;;28.26;40.65
50977;BME280;36992;48.200;12.418;2023-07-16T01:52:47;96598.66;;;28.21;40.52
50977;BME280;36992;48.200;12.418;2023-07-16T01:55:14;96611.78;;;28.17;41.26
50977;BME280;36992;48.200;12.418;2023-07-16T01:57:41;96608.28;;;28.09;40.75
50977;BME280;36992;48.200;12.418;2023-07-16T02:00:08;96620.59;;;28.04;41.02
50977;BME280;36992;48.200;12.418;2023-07-16T02:02:35;96625.38;;;28.00;41.20
50977;BME280;36992;48.200;12.418;2023-07-16T02:05:04;96640.44;;;27.99;40.96
50977;BME280;36992;48.200;12.418;2023-07-16T02:07:30;96641.22;;;27.96;41.42
50977;BME280;36992;48.200;12.418;2023-07-16T02:09:57;96654.34;;;27.92;41.80
50977;BME280;36992;48.200;12.418;2023-07-16T02:12:23;96653.94;;;27.90;41.21
50977;BME280;36992;48.200;12.418;2023-07-16T02:14:50;96661.88;;;27.87;40.98
50977;BME280;36992;48.200;12.418;2023-07-16T02:17:16;96659.94;;;27.84;42.07
50977;BME280;36992;48.200;12.418;2023-07-16T02:19:43;96671.41;;;27.83;42.21
50977;BME280;36992;48.200;12.418;2023-07-16T02:22:11;96669.03;;;27.81;42.29
50977;BME280;36992;48.200;12.418;2023-07-16T02:24:37;96681.75;;;27.75;42.90
50977;BME280;36992;48.200;12.418;2023-07-16T02:27:05;96679.41;;;27.70;42.86
50977;BME280;36992;48.200;12.418;2023-07-16T02:29:31;96679.47;;;27.63;43.15
50977;BME280;36992;48.200;12.418;2023-07-16T02:31:58;96671.19;;;27.55;43.54
50977;BME280;36992;48.200;12.418;2023-07-16T02:34:24;96674.38;;;27.50;43.64
50977;BME280;36992;48.200;12.418;2023-07-16T02:36:51;96683.91;;;27.45;43.72
50977;BME280;36992;48.200;12.418;2023-07-16T02:39:18;96682.75;;;27.43;43.57
50977;BME280;36992;48.200;12.418;2023-07-16T02:41:45;96679.63;;;27.33;43.77
50977;BME280;36992;48.200;12.418;2023-07-16T02:44:12;96693.91;;;27.28;44.38
50977;BME280;36992;48.200;12.418;2023-07-16T02:46:38;96692.34;;;27.20;43.97
50977;BME280;36992;48.200;12.418;2023-07-16T02:49:04;96705.78;;;27.18;44.77
50977;BME280;36992;48.200;12.418;2023-07-16T02:51:31;96704.25;;;27.13;44.41
50977;BME280;36992;48.200;12.418;2023-07-16T02:53:58;96715.31;;;27.10;44.77
50977;BME280;36992;48.200;12.418;2023-07-16T02:56:25;96719.25;;;27.09;44.86
50977;BME280;36992;48.200;12.418;2023-07-16T02:58:52;96725.59;;;27.05;44.97
50977;BME280;36992;48.200;12.418;2023-07-16T03:01:18;96732.72;;;27.03;45.43
50977;BME280;36992;48.200;12.418;2023-07-16T03:03:45;96740.22;;;27.02;44.31
50977;BME280;36992;48.200;12.418;2023-07-16T03:06:11;96729.16;;;27.02;44.15
50977;BME280;36992;48.200;12.418;2023-07-16T03:08:38;96733.53;;;27.03;44.72
50977;BME280;36992;48.200;12.418;2023-07-16T03:11:04;96739.81;;;27.04;44.56
50977;BME280;36992;48.200;12.418;2023-07-16T03:13:32;96746.13;;;27.08;44.08
50977;BME280;36992;48.200;12.418;2023-07-16T03:15:59;96745.31;;;27.07;44.48
50977;BME280;36992;48.200;12.418;2023-07-16T03:18:28;96753.22;;;27.13;43.96
50977;BME280;36992;48.200;12.418;2023-07-16T03:20:54;96759.53;;;27.13;44.08
50977;BME280;36992;48.200;12.418;2023-07-16T03:23:21;96765.84;;;27.14;44.86
50977;BME280;36992;48.200;12.418;2023-07-16T03:25:47;96761.88;;;27.15;44.67
50977;BME280;36992;48.200;12.418;2023-07-16T03:28:14;96772.16;;;27.14;44.17
50977;BME280;36992;48.200;12.418;2023-07-16T03:30:45;96756.75;;;27.17;44.44
50977;BME280;36992;48.200;12.418;2023-07-16T03:33:11;96746.09;;;27.12;45.13
50977;BME280;36992;48.200;12.418;2023-07-16T03:35:38;96746.09;;;27.12;45.19
50977;BME280;36992;48.200;12.418;2023-07-16T03:38:04;96754.81;;;27.06;45.50
50977;BME280;36992;48.200;12.418;2023-07-16T03:40:31;96754.03;;;27.02;45.54
50977;BME280;36992;48.200;12.418;2023-07-16T03:42:57;96761.56;;;26.98;45.69
50977;BME280;36992;48.200;12.418;2023-07-16T03:45:24;96759.59;;;26.95;45.34
50977;BME280;36992;48.200;12.418;2023-07-16T03:47:51;96770.66;;;26.95;45.11
50977;BME280;36992;48.200;12.418;2023-07-16T03:50:18;96768.69;;;26.92;45.39
50977;BME280;36992;48.200;12.418;2023-07-16T03:52:45;96787.25;;;26.91;45.86
50977;BME280;36992;48.200;12.418;2023-07-16T03:55:11;96792.00;;;26.91;46.14
50977;BME280;36992;48.200;12.418;2023-07-16T03:57:38;96785.63;;;26.90;45.65
50977;BME280;36992;48.200;12.418;2023-07-16T04:00:06;96794.31;;;26.89;44.40
50977;BME280;36992;48.200;12.418;2023-07-16T04:02:35;96790.38;;;26.90;46.16
50977;BME280;36992;48.200;12.418;2023-07-16T04:05:03;96786.84;;;26.93;45.14
50977;BME280;36992;48.200;12.418;2023-07-16T04:07:29;96787.25;;;26.91;45.46
50977;BME280;36992;48.200;12.418;2023-07-16T04:09:56;96792.00;;;26.91;45.98
50977;BME280;36992;48.200;12.418;2023-07-16T04:12:22;96792.00;;;26.91;46.13
50977;BME280;36992;48.200;12.418;2023-07-16T04:14:55;96794.75;;;26.91;46.02
50977;BME280;36992;48.200;12.418;2023-07-16T04:17:22;96806.19;;;26.86;46.60
50977;BME280;36992;48.200;12.418;2023-07-16T04:19:49;96807.78;;;26.79;46.74
50977;BME280;36992;48.200;12.418;2023-07-16T04:22:17;96810.56;;;26.76;46.33
50977;BME280;36992;48.200;12.418;2023-07-16T04:24:43;96812.53;;;26.68;46.78
50977;BME280;36992;48.200;12.418;2023-07-16T04:27:10;96821.59;;;26.61;46.05
50977;BME280;36992;48.200;12.418;2023-07-16T04:29:36;96818.47;;;26.56;47.04
50977;BME280;36992;48.200;12.418;2023-07-16T04:32:03;96829.13;;;26.53;47.19
50977;BME280;36992;48.200;12.418;2023-07-16T04:34:30;96829.91;;;26.50;46.62
50977;BME280;36992;48.200;12.418;2023-07-16T04:36:56;96820.84;;;26.46;47.22
50977;BME280;36992;48.200;12.418;2023-07-16T04:39:24;96833.06;;;26.45;46.61
50977;BME280;36992;48.200;12.418;2023-07-16T04:41:51;96822.00;;;26.42;48.73
50977;BME280;36992;48.200;12.418;2023-07-16T04:44:17;96842.16;;;26.42;48.70
50977;BME280;36992;48.200;12.418;2023-07-16T04:46:44;96841.75;;;26.40;47.97
50977;BME280;36992;48.200;12.418;2023-07-16T04:49:10;96845.69;;;26.39;49.41
50977;BME280;36992;48.200;12.418;2023-07-16T04:51:37;96844.09;;;26.38;48.77
50977;BME280;36992;48.200;12.418;2023-07-16T04:54:03;96850.44;;;26.38;47.87
50977;BME280;36992;48.200;12.418;2023-07-16T04:56:31;96842.91;;;26.39;47.20
50977;BME280;36992;48.200;12.418;2023-07-16T04:58:57;96840.97;;;26.39;47.91
50977;BME280;36992;48.200;12.418;2023-07-16T05:01:24;96843.34;;;26.41;47.51
50977;BME280;36992;48.200;12.418;2023-07-16T05:03:52;96848.06;;;26.44;47.20
50977;BME280;36992;48.200;12.418;2023-07-16T05:06:18;96845.72;;;26.46;48.02
50977;BME280;36992;48.200;12.418;2023-07-16T05:08:45;96855.16;;;26.49;48.39
50977;BME280;36992;48.200;12.418;2023-07-16T05:11:12;96855.56;;;26.51;47.97
50977;BME280;36992;48.200;12.418;2023-07-16T05:13:40;96851.22;;;26.53;47.49
50977;BME280;36992;48.200;12.418;2023-07-16T05:16:06;96846.47;;;26.54;46.84
50977;BME280;36992;48.200;12.418;2023-07-16T05:18:33;96857.13;;;26.56;47.38
50977;BME280;36992;48.200;12.418;2023-07-16T05:20:59;96859.13;;;26.59;46.96
50977;BME280;36992;48.200;12.418;2023-07-16T05:23:25;96872.13;;;26.62;46.87
50977;BME280;36992;48.200;12.418;2023-07-16T05:25:52;96874.06;;;26.65;47.42
50977;BME280;36992;48.200;12.418;2023-07-16T05:28:19;96866.22;;;26.67;47.23
50977;BME280;36992;48.200;12.418;2023-07-16T05:30:47;96874.09;;;26.72;46.36
50977;BME280;36992;48.200;12.418;2023-07-16T05:33:13;96881.19;;;26.73;46.71
50977;BME280;36992;48.200;12.418;2023-07-16T05:35:40;96885.91;;;26.76;46.73
50977;BME280;36992;48.200;12.418;2023-07-16T05:38:06;96883.56;;;26.78;47.00
50977;BME280;36992;48.200;12.418;2023-07-16T05:40:33;96886.72;;;26.80;46.97
50977;BME280;36992;48.200;12.418;2023-07-16T05:42:59;96886.72;;;26.80;47.19
50977;BME280;36992;48.200;12.418;2023-07-16T05:45:26;96895.38;;;26.83;47.27
50977;BME280;36992;48.200;12.418;2023-07-16T05:47:53;96902.91;;;26.86;46.82
50977;BME280;36992;48.200;12.418;2023-07-16T05:50:20;96900.91;;;26.83;46.94
50977;BME280;36992;48.200;12.418;2023-07-16T05:52:46;96895.38;;;26.83;47.74
50977;BME280;36992;48.200;12.418;2023-07-16T05:55:14;96902.91;;;26.82;47.56
50977;BME280;36992;48.200;12.418;2023-07-16T05:57:41;96908.03;;;26.80;48.79
50977;BME280;36992;48.200;12.418;2023-07-16T06:00:08;96919.88;;;26.77;48.71
50977;BME280;36992;48.200;12.418;2023-07-16T06:02:35;96917.50;;;26.75;49.54
50977;BME280;36992;48.200;12.418;2023-07-16T06:05:03;96927.78;;;26.75;48.93
50977;BME280;36992;48.200;12.418;2023-07-16T06:07:30;96923.41;;;26.70;48.49
50977;BME280;36992;48.200;12.418;2023-07-16T06:09:57;96928.56;;;26.68;48.67
50977;BME280;36992;48.200;12.418;2023-07-16T06:12:24;96932.50;;;26.67;48.04
50977;BME280;36992;48.200;12.418;2023-07-16T06:14:50;96929.31;;;26.65;50.10
50977;BME280;36992;48.200;12.418;2023-07-16T06:17:17;96916.72;;;26.64;50.57
50977;BME280;36992;48.200;12.418;2023-07-16T06:19:43;96910.78;;;26.62;49.84
50977;BME280;36992;48.200;12.418;2023-07-16T06:22:11;96918.28;;;26.61;49.29
50977;BME280;36992;48.200;12.418;2023-07-16T06:24:37;96918.69;;;26.60;50.72
50977;BME280;36992;48.200;12.418;2023-07-16T06:27:04;96908.84;;;26.59;50.17
50977;BME280;36992;48.200;12.418;2023-07-16T06:29:31;96898.16;;;26.57;50.11
50977;BME280;36992;48.200;12.418;2023-07-16T06:31:58;96903.69;;;26.57;49.61
50977;BME280;36992;48.200;12.418;2023-07-16T06:34:25;96912.75;;;26.58;48.47
50977;BME280;36992;48.200;12.418;2023-07-16T06:36:51;96901.72;;;26.58;51.00
50977;BME280;36992;48.200;12.418;2023-07-16T06:39:19;96900.53;;;26.59;50.75
50977;BME280;36992;48.200;12.418;2023-07-16T06:41:46;96897.38;;;26.57;50.97
50977;BME280;36992;48.200;12.418;2023-07-16T06:44:12;96903.28;;;26.55;51.09
50977;BME280;36992;48.200;12.418;2023-07-16T06:46:39;96914.34;;;26.51;49.74
50977;BME280;36992;48.200;12.418;2023-07-16T06:49:06;96915.50;;;26.47;50.60
50977;BME280;36992;48.200;12.418;2023-07-16T06:51:32;96919.09;;;26.44;51.68
50977;BME280;36992;48.200;12.418;2023-07-16T06:53:59;96924.19;;;26.38;50.10
50977;BME280;36992;48.200;12.418;2023-07-16T06:56:27;96929.72;;;26.38;50.46
50977;BME280;36992;48.200;12.418;2023-07-16T06:58:54;96934.44;;;26.34;50.43
50977;BME280;36992;48.200;12.418;2023-07-16T07:01:20;96929.69;;;26.31;50.12
50977;BME280;36992;48.200;12.418;2023-07-16T07:03:47;96941.94;;;26.30;49.93
50977;BME280;36992;48.200;12.418;2023-07-16T07:06:13;96934.84;;;26.29;49.49
50977;BME280;36992;48.200;12.418;2023-07-16T07:08:40;96937.59;;;26.29;49.96
50977;BME280;36992;48.200;12.418;2023-07-16T07:11:06;96936.41;;;26.30;49.54
50977;BME280;36992;48.200;12.418;2023-07-16T07:13:34;96941.94;;;26.33;49.11
50977;BME280;36992;48.200;12.418;2023-07-16T07:16:01;96947.84;;;26.35;51.29
50977;BME280;36992;48.200;12.418;2023-07-16T07:18:27;96947.06;;;26.38;50.46
50977;BME280;36992;48.200;12.418;2023-07-16T07:20:54;96945.09;;;26.39;49.21
50977;BME280;36992;48.200;12.418;2023-07-16T07:23:20;96941.16;;;26.40;49.06
50977;BME280;36992;48.200;12.418;2023-07-16T07:25:48;96946.28;;;26.42;49.92
50977;BME280;36992;48.200;12.418;2023-07-16T07:28:15;96955.38;;;26.42;49.24
50977;BME280;36992;48.200;12.418;2023-07-16T07:30:43;96941.94;;;26.44;48.28
50977;BME280;36992;48.200;12.418;2023-07-16T07:33:10;96947.09;;;26.46;49.03
50977;BME280;36992;48.200;12.418;2023-07-16T07:35:36;96949.84;;;26.49;48.85
50977;BME280;36992;48.200;12.418;2023-07-16T07:38:03;96945.13;;;26.53;49.83
50977;BME280;36992;48.200;12.418;2023-07-16T07:40:29;96938.81;;;26.57;50.79
50977;BME280;36992;48.200;12.418;2023-07-16T07:42:56;96930.94;;;26.59;50.04
50977;BME280;36992;48.200;12.418;2023-07-16T07:45:23;96939.59;;;26.61;48.40
50977;BME280;36992;48.200;12.418;2023-07-16T07:47:51;96938.81;;;26.64;48.50
50977;BME280;36992;48.200;12.418;2023-07-16T07:50:17;96945.13;;;26.64;48.51
50977;BME280;36992;48.200;12.418;2023-07-16T07:52:44;96953.03;;;26.66;48.59
50977;BME280;36992;48.200;12.418;2023-07-16T07:55:11;96949.09;;;26.67;47.89
50977;BME280;36992;48.200;12.418;2023-07-16T07:57:37;96953.81;;;26.66;48.08
50977;BME280;36992;48.200;12.418;2023-07-16T08:00:05;96959.31;;;26.70;48.45
50977;BME280;36992;48.200;12.418;2023-07-16T08:02:36;96949.84;;;26.71;48.55
50977;BME280;36992;48.200;12.418;2023-07-16T08:05:05;96952.22;;;26.76;47.96
50977;BME280;36992;48.200;12.418;2023-07-16T08:07:32;96949.09;;;26.74;47.28
50977;BME280;36992;48.200;12.418;2023-07-16T08:09:58;96953.81;;;26.77;47.60
50977;BME280;36992;48.200;12.418;2023-07-16T08:12:25;96952.66;;;26.78;48.14
50977;BME280;36992;48.200;12.418;2023-07-16T08:14:51;96947.13;;;26.82;48.34
50977;BME280;36992;48.200;12.418;2023-07-16T08:17:18;96945.53;;;26.85;47.95
50977;BME280;36992;48.200;12.418;2023-07-16T08:19:45;96951.06;;;26.88;47.67
50977;BME280;36992;48.200;12.418;2023-07-16T08:22:13;96945.13;;;26.90;47.24
50977;BME280;36992;48.200;12.418;2023-07-16T08:24:40;96936.44;;;26.88;46.61
50977;BME280;36992;48.200;12.418;2023-07-16T08:27:06;96931.72;;;26.88;46.81
50977;BME280;36992;48.200;12.418;2023-07-16T08:29:35;96925.41;;;26.91;46.95
50977;BME280;36992;48.200;12.418;2023-07-16T08:32:02;96926.22;;;26.92;46.91
50977;BME280;36992;48.200;12.418;2023-07-16T08:34:29;96924.22;;;26.92;46.58
50977;BME280;36992;48.200;12.418;2023-07-16T08:36:55;96929.38;;;26.94;46.34
50977;BME280;36992;48.200;12.418;2023-07-16T08:39:23;96920.69;;;26.99;46.27
50977;BME280;36992;48.200;12.418;2023-07-16T08:41:50;96911.56;;;27.02;46.48
50977;BME280;36992;48.200;12.418;2023-07-16T08:44:17;96913.16;;;27.07;45.83
50977;BME280;36992;48.200;12.418;2023-07-16T08:46:44;96917.09;;;27.13;46.01
50977;BME280;36992;48.200;12.418;2023-07-16T08:49:11;96916.28;;;27.20;45.59
50977;BME280;36992;48.200;12.418;2023-07-16T08:51:37;96923.00;;;27.26;46.43
50977;BME280;36992;48.200;12.418;2023-07-16T08:54:05;96922.97;;;27.33;46.39
50977;BME280;36992;48.200;12.418;2023-07-16T08:56:33;96920.97;;;27.41;46.40
50977;BME280;36992;48.200;12.418;2023-07-16T08:58:59;96907.53;;;27.47;45.67
50977;BME280;36992;48.200;12.418;2023-07-16T09:01:27;96905.53;;;27.55;46.13
50977;BME280;36992;48.200;12.418;2023-07-16T09:03:54;96909.91;;;27.59;46.94
50977;BME280;36992;48.200;12.418;2023-07-16T09:06:20;96903.94;;;27.65;45.66
50977;BME280;36992;48.200;12.418;2023-07-16T09:08:47;96905.50;;;27.69;44.96
50977;BME280;36992;48.200;12.418;2023-07-16T09:11:13;96916.94;;;27.75;45.11
50977;BME280;36992;48.200;12.418;2023-07-16T09:13:45;96911.00;;;27.80;44.58
50977;BME280;36992;48.200;12.418;2023-07-16T09:16:11;96899.94;;;27.80;44.68
50977;BME280;36992;48.200;12.418;2023-07-16T09:18:40;96899.09;;;27.83;46.17
50977;BME280;36992;48.200;12.418;2023-07-16T09:21:06;96905.03;;;27.85;44.55
50977;BME280;36992;48.200;12.418;2023-07-16T09:23:33;96895.91;;;27.88;44.45
50977;BME280;36992;48.200;12.418;2023-07-16T09:25:59;96896.69;;;27.93;43.67
50977;BME280;36992;48.200;12.418;2023-07-16T09:28:26;96891.13;;;27.96;44.80
50977;BME280;36992;48.200;12.418;2023-07-16T09:30:54;96884.38;;;28.01;44.06
50977;BME280;36992;48.200;12.418;2023-07-16T09:33:21;96889.91;;;28.05;44.20
50977;BME280;36992;48.200;12.418;2023-07-16T09:35:51;96889.09;;;28.08;43.29
50977;BME280;36992;48.200;12.418;2023-07-16T09:38:18;96885.13;;;28.12;43.27
50977;BME280;36992;48.200;12.418;2023-07-16T09:40:45;96872.81;;;28.17;42.59
50977;BME280;36992;48.200;12.418;2023-07-16T09:43:12;96879.13;;;28.21;41.96
50977;BME280;36992;48.200;12.418;2023-07-16T09:45:39;96875.56;;;28.24;42.19
50977;BME280;36992;48.200;12.418;2023-07-16T09:48:07;96879.91;;;28.29;43.47
50977;BME280;36992;48.200;12.418;2023-07-16T09:50:35;96868.41;;;28.31;42.89
50977;BME280;36992;48.200;12.418;2023-07-16T09:53:03;96870.34;;;28.37;42.55
50977;BME280;36992;48.200;12.418;2023-07-16T09:55:31;96872.31;;;28.40;42.27
50977;BME280;36992;48.200;12.418;2023-07-16T09:58:00;96859.19;;;28.45;42.10
50977;BME280;36992;48.200;12.418;2023-07-16T10:00:28;96859.16;;;28.48;41.68
50977;BME280;36992;48.200;12.418;2023-07-16T10:02:56;96863.09;;;28.51;41.77
50977;BME280;36992;48.200;12.418;2023-07-16T10:05:26;96864.63;;;28.55;41.12
50977;BME280;36992;48.200;12.418;2023-07-16T10:07:55;96859.09;;;28.59;40.62
50977;BME280;36992;48.200;12.418;2023-07-16T10:10:26;96863.81;;;28.62;42.03
50977;BME280;36992;48.200;12.418;2023-07-16T10:13:01;96856.66;;;28.65;42.51
50977;BME280;36992;48.200;12.418;2023-07-16T10:15:28;96856.47;;;28.87;41.79
50977;BME280;36992;48.200;12.418;2023-07-16T10:17:56;96857.75;;;28.75;41.48
50977;BME280;36992;48.200;12.418;2023-07-16T10:20:32;96847.44;;;28.79;41.20
50977;BME280;36992;48.200;12.418;2023-07-16T10:23:10;96849.38;;;28.82;41.79
50977;BME280;36992;48.200;12.418;2023-07-16T10:25:38;96852.53;;;28.80;40.64
50977;BME280;36992;48.200;12.418;2023-07-16T10:28:04;96843.03;;;28.85;40.31
50977;BME280;36992;48.200;12.418;2023-07-16T10:30:31;96842.22;;;28.88;40.65
50977;BME280;36992;48.200;12.418;2023-07-16T10:32:57;96835.03;;;28.94;40.52
50977;BME280;36992;48.200;12.418;2023-07-16T10:35:25;96838.56;;;28.99;39.62
50977;BME280;36992;48.200;12.418;2023-07-16T10:37:54;96840.84;;;29.07;40.49
50977;BME280;36992;48.200;12.418;2023-07-16T10:40:21;96832.47;;;29.11;40.73
50977;BME280;36992;48.200;12.418;2023-07-16T10:42:47;96830.03;;;29.17;40.00
50977;BME280;36992;48.200;12.418;2023-07-16T10:45:14;96824.81;;;29.23;41.04
50977;BME280;36992;48.200;12.418;2023-07-16T10:47:51;96818.34;;;29.33;40.42
50977;BME280;36992;48.200;12.418;2023-07-16T10:50:19;96822.69;;;29.34;39.01
50977;BME280;36992;48.200;12.418;2023-07-16T10:52:50;96817.06;;;29.41;39.55
50977;BME280;36992;48.200;12.418;2023-07-16T10:55:19;96815.47;;;29.44;39.09
50977;BME280;36992;48.200;12.418;2023-07-16T10:57:46;96808.25;;;29.46;38.75
50977;BME280;36992;48.200;12.418;2023-07-16T11:00:14;96803.50;;;29.51;38.20
50977;BME280;36992;48.200;12.418;2023-07-16T11:02:42;96809.78;;;29.55;38.35
50977;BME280;36992;48.200;12.418;2023-07-16T11:05:09;96807.72;;;29.59;37.37
50977;BME280;36992;48.200;12.418;2023-07-16T11:07:36;96804.13;;;29.62;38.26
50977;BME280;36992;48.200;12.418;2023-07-16T11:10:03;96807.28;;;29.64;38.12
50977;BME280;36992;48.200;12.418;2023-07-16T11:12:31;96808.38;;;29.70;38.26
50977;BME280;36992;48.200;12.418;2023-07-16T11:14:58;96806.34;;;29.74;37.77
50977;BME280;36992;48.200;12.418;2023-07-16T11:17:25;96801.09;;;29.80;38.42
50977;BME280;36992;48.200;12.418;2023-07-16T11:19:52;96803.78;;;29.87;37.69
50977;BME280;36992;48.200;12.418;2023-07-16T11:22:19;96805.66;;;29.94;35.22
50977;BME280;36992;48.200;12.418;2023-07-16T11:24:50;96800.38;;;30.04;38.06
50977;BME280;36992;48.200;12.418;2023-07-16T11:27:18;96812.97;;;30.12;36.79
50977;BME280;36992;48.200;12.418;2023-07-16T11:29:47;96809.66;;;30.21;36.82
50977;BME280;36992;48.200;12.418;2023-07-16T11:32:14;96807.97;;;30.27;35.87
50977;BME280;36992;48.200;12.418;2023-07-16T11:34:52;96815.75;;;30.36;36.37
50977;BME280;36992;48.200;12.418;2023-07-16T11:37:19;96794.97;;;30.44;33.69
50977;BME280;36992;48.200;12.418;2023-07-16T11:39:47;96791.72;;;30.49;35.71
50977;BME280;36992;48.200;12.418;2023-07-16T11:42:14;96784.47;;;30.55;35.06
50977;BME280;36992;48.200;12.418;2023-07-16T11:44:49;96771.59;;;30.65;36.48
50977;BME280;36992;48.200;12.418;2023-07-16T11:47:16;96773.94;;;30.67;35.25
50977;BME280;36992;48.200;12.418;2023-07-16T11:49:43;96771.47;;;30.73;35.68
50977;BME280;36992;48.200;12.418;2023-07-16T11:52:09;96768.19;;;30.78;36.48
50977;BME280;36992;48.200;12.418;2023-07-16T11:54:36;96766.91;;;30.82;34.43
50977;BME280;36992;48.200;12.418;2023-07-16T11:57:03;96764.88;;;30.87;34.67
50977;BME280;36992;48.200;12.418;2023-07-16T11:59:29;96772.72;;;30.92;34.87
50977;BME280;36992;48.200;12.418;2023-07-16T12:01:57;96770.19;;;30.98;34.33
50977;BME280;36992;48.200;12.418;2023-07-16T12:04:25;96766.13;;;31.02;35.13
50977;BME280;36992;48.200;12.418;2023-07-16T12:06:51;96760.06;;;31.07;34.62
50977;BME280;36992;48.200;12.418;2023-07-16T12:09:18;96754.00;;;31.13;34.95
50977;BME280;36992;48.200;12.418;2023-07-16T12:11:44;96746.72;;;31.19;34.67
50977;BME280;36992;48.200;12.418;2023-07-16T12:14:11;96757.78;;;31.22;32.40
50977;BME280;36992;48.200;12.418;2023-07-16T12:16:38;96748.16;;;31.27;31.41
50977;BME280;36992;48.200;12.418;2023-07-16T12:19:07;96742.53;;;31.31;33.39
50977;BME280;36992;48.200;12.418;2023-07-16T12:21:33;96746.09;;;31.31;32.13
50977;BME280;36992;48.200;12.418;2023-07-16T12:24:00;96743.31;;;31.31;31.89
50977;BME280;36992;48.200;12.418;2023-07-16T12:26:27;96747.25;;;31.34;33.34
50977;BME280;36992;48.200;12.418;2023-07-16T12:28:54;96741.94;;;31.40;33.17
50977;BME280;36992;48.200;12.418;2023-07-16T12:31:21;96744.22;;;31.45;33.07
50977;BME280;36992;48.200;12.418;2023-07-16T12:33:47;96746.50;;;31.50;33.55
50977;BME280;36992;48.200;12.418;2023-07-16T12:36:15;96740.00;;;31.57;33.39
50977;BME280;36992;48.200;12.418;2023-07-16T12:38:42;96739.47;;;31.62;32.15
50977;BME280;36992;48.200;12.418;2023-07-16T12:41:08;96736.25;;;31.63;33.52
50977;BME280;36992;48.200;12.418;2023-07-16T12:43:35;96737.38;;;31.66;32.85
50977;BME280;36992;48.200;12.418;2023-07-16T12:46:01;96731.31;;;31.71;33.25
50977;BME280;36992;48.200;12.418;2023-07-16T12:48:29;96735.94;;;31.78;33.30
50977;BME280;36992;48.200;12.418;2023-07-16T12:50:55;96740.97;;;31.83;32.82